Flight Track Log - Related Links

Times and Time Zones

All times are in EDT time to prevent confusion due to time zone crossing. See the SKQ225 flight status page for this flight to view local times or setup timezone preferences in your user account.

Time Position Orientation Groundspeed Altitude Reporting Facility
EDT Latitude Longitude Course Direction KTS MPH feet Rate Location/Type
Sat 01:45:20 AM 40.0697 -83.0594 249° West 107 123 1,800  Level Indianapolis Center
Sat 01:46:09 AM 40.0589 -83.0964 249° West 155 178 2,100 550 Climbing Indianapolis Center
Sat 01:47:09 AM 40.0306 -83.1422 231° Southwest 161 185 2,800 793 Climbing Indianapolis Center
Sat 01:48:10 AM 40.0050 -83.1800 229° Southwest 139 160 3,700 810 Climbing Indianapolis Center
Sat 01:49:15 AM 39.9792 -83.2144 226° Southwest 144 166 4,500 816 Climbing Indianapolis Center
Sat 01:50:15 AM 39.9539 -83.2514 228° Southwest 140 161 5,400 800 Climbing Indianapolis Center
Sat 01:51:15 AM 39.9267 -83.2903 228° Southwest 141 162 6,100 750 Climbing Indianapolis Center
Sat 01:52:15 AM 39.8978 -83.3322 228° Southwest 149 171 6,900 800 Climbing Indianapolis Center
Sat 01:53:15 AM 39.8686 -83.3750 228° Southwest 155 178 7,700 496 Climbing Indianapolis Center
Sat 01:54:16 AM 39.8356 -83.4219 227° Southwest 168 193 7,900 99 Climbing Indianapolis Center
Sat 01:55:16 AM 39.7972 -83.4794 229° Southwest 196 226 7,900  Level Indianapolis Center
Sat 01:56:16 AM 39.7603 -83.5331 228° Southwest 197 227 7,900  Level Indianapolis Center
Sat 01:57:16 AM 39.7233 -83.5861 228° Southwest 195 224 7,900  Level Indianapolis Center
Sat 01:58:16 AM 39.6864 -83.6392 228° Southwest 196 226 7,900  Level Indianapolis Center
Sat 01:59:17 AM 39.6489 -83.6931 228° Southwest 199 229 7,900  Level Indianapolis Center
Sat 02:00:17 AM 39.6117 -83.7456 227° Southwest 197 227 7,900  Level Indianapolis Center
Sat 02:01:17 AM 39.5808 -83.7886 227° Southwest 194 223 7,900  Level Indianapolis Center
Sat 02:02:17 AM 39.5436 -83.8417 228° Southwest 196 226 7,900  Level Indianapolis Center
Sat 02:03:17 AM 39.5078 -83.8944 229° Southwest 194 223 7,900  Level Indianapolis Center
Sat 02:04:18 AM 39.4706 -83.9475 228° Southwest 195 224 7,900  Level Indianapolis Center
Sat 02:05:18 AM 39.4333 -83.9997 227° Southwest 196 226 7,900  Level Indianapolis Center
Sat 02:06:18 AM 39.3967 -84.0517 228° Southwest 195 224 7,900  Level Indianapolis Center
Sat 02:07:18 AM 39.3589 -84.1044 227° Southwest 197 227 7,900  Level Indianapolis Center
Sat 02:08:18 AM 39.3219 -84.1575 228° Southwest 197 227 7,900  Level Indianapolis Center
Sat 02:09:18 AM 39.2850 -84.2108 228° Southwest 197 227 7,900  Level Indianapolis Center
Sat 02:10:19 AM 39.2478 -84.2625 227° Southwest 196 226 7,900  Level Indianapolis Center
Sat 02:11:19 AM 39.2100 -84.3147 227° Southwest 196 226 7,900  Level Indianapolis Center
Sat 02:12:19 AM 39.1728 -84.3669 227° Southwest 197 227 7,900  Level Indianapolis Center
Sat 02:13:19 AM 39.1369 -84.4181 228° Southwest 190 219 7,900  Level Indianapolis Center
Sat 02:14:17 AM 39.1000 -84.4667 226° Southwest 188 216 7,900  Level Cincinnati TRACON
Sat 02:15:17 AM 39.0667 -84.5167 229° Southwest 189 217 7,900  Level Cincinnati TRACON
Sat 02:16:17 AM 39.0333 -84.5667 229° Southwest 188 216 7,900  Level Cincinnati TRACON
Sat 02:17:17 AM 39.0000 -84.6167 229° Southwest 187 215 7,900  Level Cincinnati TRACON
Sat 02:18:17 AM 38.9667 -84.6667 229° Southwest 188 216 7,900  Level Cincinnati TRACON
Sat 02:19:17 AM 38.9167 -84.7167 218° Southwest 189 217 7,900  Level Cincinnati TRACON
Sat 02:20:17 AM 38.8833 -84.7667 229° Southwest 189 217 7,900  Level Cincinnati TRACON
Sat 02:21:17 AM 38.8500 -84.8167 229° Southwest 191 220 7,900  Level Cincinnati TRACON
Sat 02:21:32 AM 38.8422 -84.8272 227° Southwest 191 220 7,900  Level Indianapolis Center
Sat 02:22:32 AM 38.8064 -84.8764 227° Southwest 190 219 7,900  Level Indianapolis Center
Sat 02:23:32 AM 38.7717 -84.9250 228° Southwest 187 215 7,900  Level Indianapolis Center
Sat 02:24:33 AM 38.7372 -84.9739 228° Southwest 185 213 7,900  Level Indianapolis Center
Sat 02:25:33 AM 38.7017 -85.0222 227° Southwest 186 214 7,900  Level Indianapolis Center
Sat 02:26:33 AM 38.6658 -85.0706 226° Southwest 185 213 7,900 -50 Level Indianapolis Center
Sat 02:27:33 AM 38.6289 -85.1206 227° Southwest 188 216 7,800 -100 Descending Indianapolis Center
Sat 02:28:33 AM 38.5942 -85.1686 227° Southwest 186 214 7,700 -350 Descending Indianapolis Center
Sat 02:29:33 AM 38.5581 -85.2169 226° Southwest 194 223 7,100 -500 Descending Indianapolis Center
Sat 02:30:33 AM 38.5203 -85.2694 227° Southwest 199 229 6,700 -347 Descending Indianapolis Center
Sat 02:31:34 AM 38.4811 -85.3194 225° Southwest 199 229 6,400 -347 Descending Indianapolis Center
Sat 02:32:34 AM 38.4442 -85.3706 227° Southwest 197 227 6,000 -400 Descending Indianapolis Center
Sat 02:33:34 AM 38.4103 -85.4183 228° Southwest 189 217 5,600 -450 Descending Indianapolis Center
Sat 02:34:34 AM 38.3747 -85.4661 226° Southwest 185 213 5,100 -500 Descending Indianapolis Center
Sat 02:35:34 AM 38.3394 -85.5139 227° Southwest 185 213 4,600 -850 Descending Indianapolis Center
Sat 02:36:34 AM 38.3100 -85.5669 235° Southwest 184 212 3,400 -750 Descending Indianapolis Center
Sat 02:37:34 AM 38.2783 -85.6189 232° Southwest 185 213 3,100 -588 Descending Indianapolis Center
Sat 02:39:07 AM 38.2333 -85.7000 235° Southwest 168 193 1,900 -774 Descending Louisville TRACON
Sat 02:41:00 AM 38.1667 -85.7333 230° Southwest  Level FlightAware Approximate
Sat 02:48:00 AM 38.1741 -85.7365 230° Southwest  Level Estimated

Login

Don't have an account? Register now (free) for customized features, flight alerts, and more!